sensor_id;sensor_type;location;lat;lon;timestamp;pressure;altitude;pressure_sealevel;temperature;humidity
63954;BME280;50128;52.094;5.232;2022-12-08T00:00:32;100998.0;;;4.58;100.0
63954;BME280;50128;52.094;5.232;2022-12-08T00:02:09;100994.0;;;4.64;100.0
63954;BME280;50128;52.094;5.232;2022-12-08T00:09:34;100981.0;;;4.63;100.0
63954;BME280;50128;52.094;5.232;2022-12-08T00:11:14;100980.0;;;4.67;100.0
63954;BME280;50128;52.094;5.232;2022-12-08T00:12:49;100973.0;;;4.62;100.0
63954;BME280;50128;52.094;5.232;2022-12-08T00:14:28;100970.0;;;4.57;100.0
63954;BME280;50128;52.094;5.232;2022-12-08T00:17:42;100966.0;;;4.51;100.0
63954;BME280;50128;52.094;5.232;2022-12-08T00:19:19;100969.0;;;4.55;100.0
63954;BME280;50128;52.094;5.232;2022-12-08T00:20:55;100962.0;;;4.53;100.0
63954;BME280;50128;52.094;5.232;2022-12-08T00:24:08;100959.0;;;4.57;100.0
63954;BME280;50128;52.094;5.232;2022-12-08T00:25:44;100960.0;;;4.55;100.0
63954;BME280;50128;52.094;5.232;2022-12-08T00:27:20;100958.0;;;4.47;100.0
63954;BME280;50128;52.094;5.232;2022-12-08T00:28:56;100947.0;;;4.67;100.0
63954;BME280;50128;52.094;5.232;2022-12-08T00:32:09;100949.0;;;4.61;100.0
63954;BME280;50128;52.094;5.232;2022-12-08T00:33:45;100944.0;;;4.55;100.0
63954;BME280;50128;52.094;5.232;2022-12-08T00:35:22;100934.0;;;4.62;100.0
63954;BME280;50128;52.094;5.232;2022-12-08T00:38:37;100935.0;;;4.66;100.0
63954;BME280;50128;52.094;5.232;2022-12-08T00:40:14;100932.0;;;4.47;100.0
63954;BME280;50128;52.094;5.232;2022-12-08T00:42:21;100930.0;;;4.42;100.0
63954;BME280;50128;52.094;5.232;2022-12-08T00:43:58;100924.0;;;4.43;100.0
63954;BME280;50128;52.094;5.232;2022-12-08T00:47:11;100928.0;;;4.46;100.0
63954;BME280;50128;52.094;5.232;2022-12-08T00:48:48;100923.0;;;4.38;100.0
63954;BME280;50128;52.094;5.232;2022-12-08T00:50:24;100920.0;;;4.39;100.0
63954;BME280;50128;52.094;5.232;2022-12-08T00:52:01;100914.0;;;4.51;100.0
63954;BME280;50128;52.094;5.232;2022-12-08T00:55:14;100912.0;;;4.53;100.0
63954;BME280;50128;52.094;5.232;2022-12-08T00:56:50;100905.0;;;4.43;100.0
63954;BME280;50128;52.094;5.232;2022-12-08T00:58:26;100905.0;;;4.39;100.0
63954;BME280;50128;52.094;5.232;2022-12-08T01:01:43;100906.0;;;4.45;100.0
63954;BME280;50128;52.094;5.232;2022-12-08T01:03:20;100905.0;;;4.38;100.0
63954;BME280;50128;52.094;5.232;2022-12-08T01:04:56;100898.0;;;4.32;100.0
63954;BME280;50128;52.094;5.232;2022-12-08T01:06:33;100895.0;;;4.24;100.0
63954;BME280;50128;52.094;5.232;2022-12-08T01:09:47;100900.0;;;4.32;100.0
63954;BME280;50128;52.094;5.232;2022-12-08T01:11:23;100890.0;;;4.28;100.0
63954;BME280;50128;52.094;5.232;2022-12-08T01:12:59;100897.0;;;4.39;100.0
63954;BME280;50128;52.094;5.232;2022-12-08T01:16:21;100922.0;;;4.45;100.0
63954;BME280;50128;52.094;5.232;2022-12-08T01:17:57;100927.0;;;4.55;100.0
63954;BME280;50128;52.094;5.232;2022-12-08T01:19:34;100918.0;;;4.53;100.0
63954;BME280;50128;52.094;5.232;2022-12-08T01:22:46;100919.0;;;4.45;100.0
63954;BME280;50128;52.094;5.232;2022-12-08T01:24:22;100915.0;;;4.46;100.0
63954;BME280;50128;52.094;5.232;2022-12-08T01:26:02;100898.0;;;4.39;100.0
63954;BME280;50128;52.094;5.232;2022-12-08T01:27:40;100892.0;;;4.55;100.0
63954;BME280;50128;52.094;5.232;2022-12-08T01:30:53;100886.0;;;4.59;100.0
63954;BME280;50128;52.094;5.232;2022-12-08T01:32:29;100888.0;;;4.42;100.0
63954;BME280;50128;52.094;5.232;2022-12-08T01:34:06;100894.0;;;4.39;100.0
63954;BME280;50128;52.094;5.232;2022-12-08T01:37:19;100892.0;;;4.32;100.0
63954;BME280;50128;52.094;5.232;2022-12-08T01:38:58;100890.0;;;4.29;100.0
63954;BME280;50128;52.094;5.232;2022-12-08T01:40:35;100891.0;;;4.29;100.0
63954;BME280;50128;52.094;5.232;2022-12-08T01:42:18;100897.0;;;4.28;100.0
63954;BME280;50128;52.094;5.232;2022-12-08T01:45:36;100898.0;;;4.3;100.0
63954;BME280;50128;52.094;5.232;2022-12-08T01:47:12;100897.0;;;4.25;100.0
63954;BME280;50128;52.094;5.232;2022-12-08T01:48:49;100899.0;;;4.3;100.0
63954;BME280;50128;52.094;5.232;2022-12-08T01:52:09;100899.0;;;4.3;100.0
63954;BME280;50128;52.094;5.232;2022-12-08T01:53:49;100895.0;;;4.37;100.0
63954;BME280;50128;52.094;5.232;2022-12-08T01:55:30;100899.0;;;4.28;100.0
63954;BME280;50128;52.094;5.232;2022-12-08T01:57:11;100898.0;;;4.41;100.0
63954;BME280;50128;52.094;5.232;2022-12-08T02:00:29;100892.0;;;4.28;100.0
63954;BME280;50128;52.094;5.232;2022-12-08T02:02:06;100890.0;;;4.34;100.0
63954;BME280;50128;52.094;5.232;2022-12-08T02:03:46;100890.0;;;4.49;100.0
63954;BME280;50128;52.094;5.232;2022-12-08T02:05:28;100884.0;;;4.45;100.0
63954;BME280;50128;52.094;5.232;2022-12-08T02:08:46;100882.0;;;4.43;100.0
63954;BME280;50128;52.094;5.232;2022-12-08T02:10:26;100883.0;;;4.53;100.0
63954;BME280;50128;52.094;5.232;2022-12-08T02:12:05;100883.0;;;4.45;100.0
63954;BME280;50128;52.094;5.232;2022-12-08T02:13:44;100878.0;;;4.45;100.0
63954;BME280;50128;52.094;5.232;2022-12-08T02:17:17;100872.0;;;4.45;100.0
63954;BME280;50128;52.094;5.232;2022-12-08T02:19:11;100865.0;;;4.49;100.0
63954;BME280;50128;52.094;5.232;2022-12-08T02:21:02;100863.0;;;4.47;100.0
63954;BME280;50128;52.094;5.232;2022-12-08T02:22:48;100863.0;;;4.45;100.0
63954;BME280;50128;52.094;5.232;2022-12-08T02:24:33;100857.0;;;4.49;100.0
63954;BME280;50128;52.094;5.232;2022-12-08T02:26:32;100858.0;;;4.45;100.0
63954;BME280;50128;52.094;5.232;2022-12-08T02:29:31;100863.0;;;4.43;100.0
63954;BME280;50128;52.094;5.232;2022-12-08T02:31:35;100871.0;;;4.38;100.0
63954;BME280;50128;52.094;5.232;2022-12-08T02:33:40;100860.0;;;4.51;100.0
63954;BME280;50128;52.094;5.232;2022-12-08T02:35:54;100847.0;;;4.64;100.0
63954;BME280;50128;52.094;5.232;2022-12-08T02:37:37;100849.0;;;4.55;100.0
63954;BME280;50128;52.094;5.232;2022-12-08T02:39:24;100850.0;;;4.59;100.0
63954;BME280;50128;52.094;5.232;2022-12-08T02:41:15;100846.0;;;4.51;100.0
63954;BME280;50128;52.094;5.232;2022-12-08T02:42:56;100838.0;;;4.57;100.0
63954;BME280;50128;52.094;5.232;2022-12-08T02:46:20;100833.0;;;4.54;100.0
63954;BME280;50128;52.094;5.232;2022-12-08T02:48:00;100830.0;;;4.62;100.0
63954;BME280;50128;52.094;5.232;2022-12-08T02:49:36;100836.0;;;4.55;100.0
63954;BME280;50128;52.094;5.232;2022-12-08T02:51:12;100833.0;;;4.53;100.0
63954;BME280;50128;52.094;5.232;2022-12-08T02:54:25;100828.0;;;4.54;100.0
63954;BME280;50128;52.094;5.232;2022-12-08T02:56:07;100828.0;;;4.53;100.0
63954;BME280;50128;52.094;5.232;2022-12-08T02:58:03;100823.0;;;4.58;100.0
63954;BME280;50128;52.094;5.232;2022-12-08T03:00:05;100820.0;;;4.49;100.0
63954;BME280;50128;52.094;5.232;2022-12-08T03:01:53;100816.0;;;4.49;100.0
63954;BME280;50128;52.094;5.232;2022-12-08T03:05:36;100819.0;;;4.37;100.0
63954;BME280;50128;52.094;5.232;2022-12-08T03:07:23;100811.0;;;4.39;100.0
63954;BME280;50128;52.094;5.232;2022-12-08T03:09:09;100810.0;;;4.38;100.0
63954;BME280;50128;52.094;5.232;2022-12-08T03:10:52;100809.0;;;4.41;100.0
63954;BME280;50128;52.094;5.232;2022-12-08T03:12:36;100807.0;;;4.45;100.0
63954;BME280;50128;52.094;5.232;2022-12-08T03:14:16;100802.0;;;4.53;100.0
63954;BME280;50128;52.094;5.232;2022-12-08T03:17:32;100799.0;;;4.55;100.0
63954;BME280;50128;52.094;5.232;2022-12-08T03:19:14;100802.0;;;4.49;100.0
63954;BME280;50128;52.094;5.232;2022-12-08T03:20:53;100800.0;;;4.53;100.0
63954;BME280;50128;52.094;5.232;2022-12-08T03:24:09;100809.0;;;4.47;100.0
63954;BME280;50128;52.094;5.232;2022-12-08T03:25:51;100819.0;;;4.66;100.0
63954;BME280;50128;52.094;5.232;2022-12-08T03:27:31;100826.0;;;4.62;100.0
63954;BME280;50128;52.094;5.232;2022-12-08T03:29:08;100824.0;;;4.61;100.0
63954;BME280;50128;52.094;5.232;2022-12-08T03:32:29;100819.0;;;4.62;100.0
63954;BME280;50128;52.094;5.232;2022-12-08T03:34:10;100810.0;;;4.66;100.0
63954;BME280;50128;52.094;5.232;2022-12-08T03:35:49;100810.0;;;4.43;100.0
63954;BME280;50128;52.094;5.232;2022-12-08T03:37:27;100803.0;;;4.46;100.0
63954;BME280;50128;52.094;5.232;2022-12-08T03:40:40;100799.0;;;4.5;100.0
63954;BME280;50128;52.094;5.232;2022-12-08T03:42:17;100793.0;;;4.46;100.0
63954;BME280;50128;52.094;5.232;2022-12-08T03:43:55;100792.0;;;4.36;100.0
63954;BME280;50128;52.094;5.232;2022-12-08T03:45:33;100787.0;;;4.28;100.0
63954;BME280;50128;52.094;5.232;2022-12-08T03:48:46;100785.0;;;4.24;100.0
63954;BME280;50128;52.094;5.232;2022-12-08T03:50:23;100788.0;;;4.28;100.0
63954;BME280;50128;52.094;5.232;2022-12-08T03:52:00;100788.0;;;4.34;100.0
63954;BME280;50128;52.094;5.232;2022-12-08T03:55:14;100782.0;;;4.29;100.0
63954;BME280;50128;52.094;5.232;2022-12-08T03:56:50;100775.0;;;4.25;100.0
63954;BME280;50128;52.094;5.232;2022-12-08T03:58:27;100778.0;;;4.33;100.0
63954;BME280;50128;52.094;5.232;2022-12-08T04:01:41;100775.0;;;4.28;100.0
63954;BME280;50128;52.094;5.232;2022-12-08T04:03:18;100767.0;;;4.22;100.0
63954;BME280;50128;52.094;5.232;2022-12-08T04:04:54;100765.0;;;4.22;100.0
63954;BME280;50128;52.094;5.232;2022-12-08T04:06:31;100761.0;;;4.29;100.0
63954;BME280;50128;52.094;5.232;2022-12-08T04:09:44;100757.0;;;4.28;100.0
63954;BME280;50128;52.094;5.232;2022-12-08T04:11:20;100753.0;;;4.22;100.0
63954;BME280;50128;52.094;5.232;2022-12-08T04:12:56;100755.0;;;4.2;100.0
63954;BME280;50128;52.094;5.232;2022-12-08T04:16:14;100750.0;;;4.2;100.0
63954;BME280;50128;52.094;5.232;2022-12-08T04:17:51;100749.0;;;4.21;100.0
63954;BME280;50128;52.094;5.232;2022-12-08T04:19:27;100748.0;;;4.18;100.0
63954;BME280;50128;52.094;5.232;2022-12-08T04:22:40;100745.0;;;4.26;100.0
63954;BME280;50128;52.094;5.232;2022-12-08T04:24:16;100745.0;;;4.34;100.0
63954;BME280;50128;52.094;5.232;2022-12-08T04:25:53;100748.0;;;4.36;100.0
63954;BME280;50128;52.094;5.232;2022-12-08T04:27:29;100747.0;;;4.32;100.0
63954;BME280;50128;52.094;5.232;2022-12-08T04:30:41;100755.0;;;4.33;100.0
63954;BME280;50128;52.094;5.232;2022-12-08T04:32:17;100753.0;;;4.49;100.0
63954;BME280;50128;52.094;5.232;2022-12-08T04:33:53;100750.0;;;4.43;100.0
63954;BME280;50128;52.094;5.232;2022-12-08T04:37:06;100749.0;;;4.41;100.0
63954;BME280;50128;52.094;5.232;2022-12-08T04:38:42;100740.0;;;4.37;100.0
63954;BME280;50128;52.094;5.232;2022-12-08T04:40:18;100738.0;;;4.3;100.0
63954;BME280;50128;52.094;5.232;2022-12-08T04:43:31;100741.0;;;4.41;100.0
63954;BME280;50128;52.094;5.232;2022-12-08T04:45:07;100744.0;;;4.41;100.0
63954;BME280;50128;52.094;5.232;2022-12-08T04:46:44;100739.0;;;4.28;100.0
63954;BME280;50128;52.094;5.232;2022-12-08T04:48:21;100731.0;;;4.24;100.0
63954;BME280;50128;52.094;5.232;2022-12-08T04:51:34;100731.0;;;4.24;100.0
63954;BME280;50128;52.094;5.232;2022-12-08T04:53:11;100728.0;;;4.24;100.0
63954;BME280;50128;52.094;5.232;2022-12-08T04:54:48;100728.0;;;4.32;100.0
63954;BME280;50128;52.094;5.232;2022-12-08T04:58:00;100734.0;;;4.29;100.0
63954;BME280;50128;52.094;5.232;2022-12-08T04:59:36;100735.0;;;4.12;100.0
63954;BME280;50128;52.094;5.232;2022-12-08T05:01:13;100737.0;;;4.2;100.0
63954;BME280;50128;52.094;5.232;2022-12-08T05:04:26;100731.0;;;4.24;100.0
63954;BME280;50128;52.094;5.232;2022-12-08T05:06:03;100733.0;;;4.28;100.0
63954;BME280;50128;52.094;5.232;2022-12-08T05:07:39;100726.0;;;4.14;100.0
63954;BME280;50128;52.094;5.232;2022-12-08T05:09:15;100725.0;;;4.21;100.0
63954;BME280;50128;52.094;5.232;2022-12-08T05:12:28;100727.0;;;4.12;100.0
63954;BME280;50128;52.094;5.232;2022-12-08T05:14:04;100724.0;;;4.14;100.0
63954;BME280;50128;52.094;5.232;2022-12-08T05:15:40;100726.0;;;4.24;100.0
63954;BME280;50128;52.094;5.232;2022-12-08T05:18:53;100722.0;;;4.28;100.0
63954;BME280;50128;52.094;5.232;2022-12-08T05:20:29;100723.0;;;4.32;100.0
63954;BME280;50128;52.094;5.232;2022-12-08T05:22:06;100730.0;;;4.34;100.0
63954;BME280;50128;52.094;5.232;2022-12-08T05:25:18;100734.0;;;4.46;100.0
63954;BME280;50128;52.094;5.232;2022-12-08T05:26:54;100739.0;;;4.45;100.0
63954;BME280;50128;52.094;5.232;2022-12-08T05:28:30;100737.0;;;4.45;100.0
63954;BME280;50128;52.094;5.232;2022-12-08T05:30:08;100734.0;;;4.45;100.0
63954;BME280;50128;52.094;5.232;2022-12-08T05:33:20;100739.0;;;4.42;100.0
63954;BME280;50128;52.094;5.232;2022-12-08T05:34:56;100739.0;;;4.41;100.0
63954;BME280;50128;52.094;5.232;2022-12-08T05:36:32;100737.0;;;4.29;100.0
63954;BME280;50128;52.094;5.232;2022-12-08T05:39:46;100735.0;;;4.29;100.0
63954;BME280;50128;52.094;5.232;2022-12-08T05:41:23;100734.0;;;4.25;100.0
63954;BME280;50128;52.094;5.232;2022-12-08T05:43:00;100734.0;;;4.18;100.0
63954;BME280;50128;52.094;5.232;2022-12-08T05:46:13;100731.0;;;4.12;100.0
63954;BME280;50128;52.094;5.232;2022-12-08T05:47:51;100736.0;;;4.1;100.0
63954;BME280;50128;52.094;5.232;2022-12-08T05:49:27;100734.0;;;4.18;100.0
63954;BME280;50128;52.094;5.232;2022-12-08T05:51:12;100735.0;;;4.13;100.0
63954;BME280;50128;52.094;5.232;2022-12-08T05:54:27;100733.0;;;3.95;100.0
63954;BME280;50128;52.094;5.232;2022-12-08T05:56:03;100733.0;;;4.05;100.0
63954;BME280;50128;52.094;5.232;2022-12-08T05:57:40;100734.0;;;4.03;100.0
63954;BME280;50128;52.094;5.232;2022-12-08T06:00:52;100733.0;;;3.94;100.0
63954;BME280;50128;52.094;5.232;2022-12-08T06:02:29;100732.0;;;4.03;100.0
63954;BME280;50128;52.094;5.232;2022-12-08T06:04:05;100733.0;;;3.98;100.0
63954;BME280;50128;52.094;5.232;2022-12-08T06:05:42;100732.0;;;3.92;100.0
63954;BME280;50128;52.094;5.232;2022-12-08T06:08:55;100735.0;;;3.99;100.0
63954;BME280;50128;52.094;5.232;2022-12-08T06:10:31;100732.0;;;3.9;100.0
63954;BME280;50128;52.094;5.232;2022-12-08T06:12:10;100732.0;;;3.94;100.0
63954;BME280;50128;52.094;5.232;2022-12-08T06:15:25;100733.0;;;3.93;100.0
63954;BME280;50128;52.094;5.232;2022-12-08T06:17:01;100736.0;;;3.89;100.0
63954;BME280;50128;52.094;5.232;2022-12-08T06:18:37;100738.0;;;3.83;100.0
63954;BME280;50128;52.094;5.232;2022-12-08T06:21:51;100740.0;;;3.7;100.0
63954;BME280;50128;52.094;5.232;2022-12-08T06:23:27;100733.0;;;3.72;100.0
63954;BME280;50128;52.094;5.232;2022-12-08T06:25:04;100728.0;;;3.68;100.0
63954;BME280;50128;52.094;5.232;2022-12-08T06:26:40;100720.0;;;3.68;100.0
63954;BME280;50128;52.094;5.232;2022-12-08T06:29:53;100728.0;;;3.63;100.0
63954;BME280;50128;52.094;5.232;2022-12-08T06:31:29;100728.0;;;3.59;100.0
63954;BME280;50128;52.094;5.232;2022-12-08T06:33:05;100727.0;;;3.63;100.0
63954;BME280;50128;52.094;5.232;2022-12-08T06:36:19;100722.0;;;3.56;100.0
63954;BME280;50128;52.094;5.232;2022-12-08T06:37:57;100722.0;;;3.68;100.0
63954;BME280;50128;52.094;5.232;2022-12-08T06:39:33;100726.0;;;3.65;100.0
63954;BME280;50128;52.094;5.232;2022-12-08T06:42:48;100723.0;;;3.57;100.0
63954;BME280;50128;52.094;5.232;2022-12-08T06:44:24;100725.0;;;3.56;100.0
63954;BME280;50128;52.094;5.232;2022-12-08T06:46:01;100725.0;;;3.56;100.0
63954;BME280;50128;52.094;5.232;2022-12-08T06:47:39;100725.0;;;3.55;100.0
63954;BME280;50128;52.094;5.232;2022-12-08T06:50:53;100728.0;;;3.58;100.0
63954;BME280;50128;52.094;5.232;2022-12-08T06:52:29;100723.0;;;3.53;100.0
63954;BME280;50128;52.094;5.232;2022-12-08T06:54:05;100727.0;;;3.57;100.0
63954;BME280;50128;52.094;5.232;2022-12-08T06:57:19;100730.0;;;3.55;100.0
63954;BME280;50128;52.094;5.232;2022-12-08T06:58:56;100727.0;;;3.45;100.0
63954;BME280;50128;52.094;5.232;2022-12-08T07:00:33;100724.0;;;3.49;100.0
63954;BME280;50128;52.094;5.232;2022-12-08T07:03:46;100723.0;;;3.52;100.0
63954;BME280;50128;52.094;5.232;2022-12-08T07:05:23;100713.0;;;3.6;100.0
63954;BME280;50128;52.094;5.232;2022-12-08T07:06:59;100711.0;;;3.52;100.0
63954;BME280;50128;52.094;5.232;2022-12-08T07:08:35;100712.0;;;3.45;100.0
63954;BME280;50128;52.094;5.232;2022-12-08T07:11:48;100711.0;;;3.5;100.0
63954;BME280;50128;52.094;5.232;2022-12-08T07:13:24;100712.0;;;3.44;100.0
63954;BME280;50128;52.094;5.232;2022-12-08T07:15:00;100714.0;;;3.35;100.0
63954;BME280;50128;52.094;5.232;2022-12-08T07:18:14;100709.0;;;3.54;100.0
63954;BME280;50128;52.094;5.232;2022-12-08T07:19:51;100712.0;;;3.44;100.0
63954;BME280;50128;52.094;5.232;2022-12-08T07:21:27;100718.0;;;3.39;100.0
63954;BME280;50128;52.094;5.232;2022-12-08T07:24:40;100721.0;;;3.28;100.0
63954;BME280;50128;52.094;5.232;2022-12-08T07:26:17;100720.0;;;3.32;100.0
63954;BME280;50128;52.094;5.232;2022-12-08T07:27:54;100717.0;;;3.36;100.0
63954;BME280;50128;52.094;5.232;2022-12-08T07:29:30;100720.0;;;3.32;100.0
63954;BME280;50128;52.094;5.232;2022-12-08T07:32:51;100715.0;;;3.27;100.0
63954;BME280;50128;52.094;5.232;2022-12-08T07:34:27;100712.0;;;3.28;100.0
63954;BME280;50128;52.094;5.232;2022-12-08T07:36:04;100711.0;;;3.21;100.0
63954;BME280;50128;52.094;5.232;2022-12-08T07:39:18;100716.0;;;3.26;100.0
63954;BME280;50128;52.094;5.232;2022-12-08T07:40:54;100716.0;;;3.17;100.0
63954;BME280;50128;52.094;5.232;2022-12-08T07:42:30;100718.0;;;3.22;100.0
63954;BME280;50128;52.094;5.232;2022-12-08T07:44:07;100718.0;;;3.2;100.0
63954;BME280;50128;52.094;5.232;2022-12-08T07:47:20;100717.0;;;3.21;100.0
63954;BME280;50128;52.094;5.232;2022-12-08T07:48:57;100718.0;;;3.21;100.0
63954;BME280;50128;52.094;5.232;2022-12-08T07:50:34;100720.0;;;3.14;100.0
63954;BME280;50128;52.094;5.232;2022-12-08T07:53:48;100720.0;;;3.13;100.0
63954;BME280;50128;52.094;5.232;2022-12-08T07:55:24;100722.0;;;3.09;100.0
63954;BME280;50128;52.094;5.232;2022-12-08T07:57:03;100725.0;;;3.13;100.0
63954;BME280;50128;52.094;5.232;2022-12-08T07:58:39;100720.0;;;3.1;100.0
63954;BME280;50128;52.094;5.232;2022-12-08T08:01:54;100723.0;;;3.12;100.0
63954;BME280;50128;52.094;5.232;2022-12-08T08:03:31;100718.0;;;3.11;100.0
63954;BME280;50128;52.094;5.232;2022-12-08T08:05:10;100718.0;;;3.16;100.0
63954;BME280;50128;52.094;5.232;2022-12-08T08:08:23;100717.0;;;3.11;100.0
63954;BME280;50128;52.094;5.232;2022-12-08T08:09:59;100715.0;;;3.16;100.0
63954;BME280;50128;52.094;5.232;2022-12-08T08:11:35;100719.0;;;3.13;100.0
63954;BME280;50128;52.094;5.232;2022-12-08T08:14:48;100725.0;;;3.12;100.0
63954;BME280;50128;52.094;5.232;2022-12-08T08:16:24;100723.0;;;3.13;100.0
63954;BME280;50128;52.094;5.232;2022-12-08T08:18:02;100722.0;;;3.16;100.0
63954;BME280;50128;52.094;5.232;2022-12-08T08:19:39;100722.0;;;3.27;100.0
63954;BME280;50128;52.094;5.232;2022-12-08T08:22:53;100719.0;;;3.27;100.0
63954;BME280;50128;52.094;5.232;2022-12-08T08:24:29;100719.0;;;3.21;100.0
63954;BME280;50128;52.094;5.232;2022-12-08T08:26:05;100722.0;;;3.2;100.0
63954;BME280;50128;52.094;5.232;2022-12-08T08:29:20;100728.0;;;3.15;100.0
63954;BME280;50128;52.094;5.232;2022-12-08T08:30:57;100724.0;;;3.09;100.0
63954;BME280;50128;52.094;5.232;2022-12-08T08:32:35;100725.0;;;3.11;100.0
63954;BME280;50128;52.094;5.232;2022-12-08T08:35:48;100727.0;;;3.18;100.0
63954;BME280;50128;52.094;5.232;2022-12-08T08:37:25;100735.0;;;3.2;100.0
63954;BME280;50128;52.094;5.232;2022-12-08T08:39:02;100738.0;;;3.18;100.0
63954;BME280;50128;52.094;5.232;2022-12-08T08:40:39;100733.0;;;3.12;100.0
63954;BME280;50128;52.094;5.232;2022-12-08T08:43:53;100742.0;;;3.18;100.0
63954;BME280;50128;52.094;5.232;2022-12-08T08:45:30;100742.0;;;3.25;100.0
63954;BME280;50128;52.094;5.232;2022-12-08T08:47:07;100739.0;;;3.28;100.0
63954;BME280;50128;52.094;5.232;2022-12-08T08:50:20;100742.0;;;3.23;100.0
63954;BME280;50128;52.094;5.232;2022-12-08T08:51:56;100741.0;;;3.21;100.0
63954;BME280;50128;52.094;5.232;2022-12-08T08:53:32;100742.0;;;3.38;100.0
63954;BME280;50128;52.094;5.232;2022-12-08T08:55:09;100739.0;;;3.3;100.0
63954;BME280;50128;52.094;5.232;2022-12-08T08:58:23;100744.0;;;3.34;100.0
63954;BME280;50128;52.094;5.232;2022-12-08T08:59:59;100750.0;;;3.42;100.0
63954;BME280;50128;52.094;5.232;2022-12-08T09:01:35;100752.0;;;3.41;100.0
63954;BME280;50128;52.094;5.232;2022-12-08T09:04:47;100746.0;;;3.29;100.0
63954;BME280;50128;52.094;5.232;2022-12-08T09:06:24;100747.0;;;3.33;100.0
63954;BME280;50128;52.094;5.232;2022-12-08T09:08:01;100743.0;;;3.28;100.0
63954;BME280;50128;52.094;5.232;2022-12-08T09:11:15;100743.0;;;3.3;100.0
63954;BME280;50128;52.094;5.232;2022-12-08T09:12:51;100745.0;;;3.3;100.0
63954;BME280;50128;52.094;5.232;2022-12-08T09:14:27;100744.0;;;3.39;100.0
63954;BME280;50128;52.094;5.232;2022-12-08T09:16:06;100744.0;;;3.38;100.0
63954;BME280;50128;52.094;5.232;2022-12-08T09:19:19;100746.0;;;3.48;100.0
63954;BME280;50128;52.094;5.232;2022-12-08T09:20:55;100748.0;;;3.43;100.0
63954;BME280;50128;52.094;5.232;2022-12-08T09:22:31;100742.0;;;3.48;100.0
63954;BME280;50128;52.094;5.232;2022-12-08T09:25:45;100743.0;;;3.6;100.0
63954;BME280;50128;52.094;5.232;2022-12-08T09:27:22;100744.0;;;3.76;100.0
63954;BME280;50128;52.094;5.232;2022-12-08T09:28:58;100741.0;;;3.8;100.0
63954;BME280;50128;52.094;5.232;2022-12-08T09:32:10;100740.0;;;3.7;100.0
63954;BME280;50128;52.094;5.232;2022-12-08T09:33:47;100744.0;;;3.66;100.0
63954;BME280;50128;52.094;5.232;2022-12-08T09:35:24;100742.0;;;3.6;100.0
63954;BME280;50128;52.094;5.232;2022-12-08T09:37:01;100742.0;;;3.72;100.0
63954;BME280;50128;52.094;5.232;2022-12-08T09:40:19;100742.0;;;3.66;100.0
63954;BME280;50128;52.094;5.232;2022-12-08T09:41:59;100743.0;;;3.7;100.0
63954;BME280;50128;52.094;5.232;2022-12-08T09:43:47;100745.0;;;3.75;100.0
63954;BME280;50128;52.094;5.232;2022-12-08T09:45:33;100742.0;;;3.78;100.0
63954;BME280;50128;52.094;5.232;2022-12-08T09:48:58;100739.0;;;3.72;100.0
63954;BME280;50128;52.094;5.232;2022-12-08T09:50:38;100747.0;;;3.69;100.0
63954;BME280;50128;52.094;5.232;2022-12-08T09:52:20;100748.0;;;3.74;100.0
63954;BME280;50128;52.094;5.232;2022-12-08T09:54:00;100745.0;;;3.73;100.0
63954;BME280;50128;52.094;5.232;2022-12-08T09:57:23;100743.0;;;3.69;100.0
63954;BME280;50128;52.094;5.232;2022-12-08T09:59:01;100741.0;;;3.7;100.0
63954;BME280;50128;52.094;5.232;2022-12-08T10:00:41;100745.0;;;3.73;100.0
63954;BME280;50128;52.094;5.232;2022-12-08T10:02:21;100742.0;;;3.74;100.0
63954;BME280;50128;52.094;5.232;2022-12-08T10:05:40;100740.0;;;3.8;100.0
63954;BME280;50128;52.094;5.232;2022-12-08T10:07:25;100740.0;;;3.72;100.0
63954;BME280;50128;52.094;5.232;2022-12-08T10:09:13;100736.0;;;3.85;100.0
63954;BME280;50128;52.094;5.232;2022-12-08T10:11:10;100735.0;;;3.8;100.0
63954;BME280;50128;52.094;5.232;2022-12-08T10:16:21;100736.0;;;3.84;100.0
63954;BME280;50128;52.094;5.232;2022-12-08T10:18:11;100734.0;;;3.87;100.0
63954;BME280;50128;52.094;5.232;2022-12-08T10:19:58;100735.0;;;3.9;100.0
63954;BME280;50128;52.094;5.232;2022-12-08T10:21:41;100731.0;;;3.84;100.0
63954;BME280;50128;52.094;5.232;2022-12-08T10:23:26;100732.0;;;3.95;100.0
63954;BME280;50128;52.094;5.232;2022-12-08T10:25:14;100732.0;;;3.94;100.0
63954;BME280;50128;52.094;5.232;2022-12-08T10:28:33;100734.0;;;4.0;100.0
63954;BME280;50128;52.094;5.232;2022-12-08T10:30:11;100735.0;;;4.08;100.0
63954;BME280;50128;52.094;5.232;2022-12-08T10:31:56;100735.0;;;3.97;100.0
63954;BME280;50128;52.094;5.232;2022-12-08T10:33:34;100733.0;;;4.03;100.0
63954;BME280;50128;52.094;5.232;2022-12-08T10:36:51;100732.0;;;3.99;100.0
63954;BME280;50128;52.094;5.232;2022-12-08T10:38:31;100732.0;;;4.0;100.0
63954;BME280;50128;52.094;5.232;2022-12-08T10:40:12;100727.0;;;3.87;100.0
63954;BME280;50128;52.094;5.232;2022-12-08T10:41:53;100723.0;;;3.82;100.0
63954;BME280;50128;52.094;5.232;2022-12-08T10:45:23;100722.0;;;3.77;100.0
63954;BME280;50128;52.094;5.232;2022-12-08T10:47:10;100727.0;;;3.85;100.0
63954;BME280;50128;52.094;5.232;2022-12-08T10:48:49;100722.0;;;3.78;100.0
63954;BME280;50128;52.094;5.232;2022-12-08T10:50:29;100723.0;;;3.75;100.0
63954;BME280;50128;52.094;5.232;2022-12-08T10:53:57;100724.0;;;3.66;100.0
63954;BME280;50128;52.094;5.232;2022-12-08T10:55:39;100724.0;;;3.7;100.0
63954;BME280;50128;52.094;5.232;2022-12-08T10:57:20;100722.0;;;3.64;100.0
63954;BME280;50128;52.094;5.232;2022-12-08T10:59:09;100715.0;;;3.71;100.0
63954;BME280;50128;52.094;5.232;2022-12-08T11:00:49;100721.0;;;3.68;100.0
63954;BME280;50128;52.094;5.232;2022-12-08T11:04:09;100721.0;;;3.66;100.0
63954;BME280;50128;52.094;5.232;2022-12-08T11:05:47;100722.0;;;3.59;100.0
63954;BME280;50128;52.094;5.232;2022-12-08T11:07:25;100722.0;;;3.57;100.0
63954;BME280;50128;52.094;5.232;2022-12-08T11:09:04;100727.0;;;3.58;100.0
63954;BME280;50128;52.094;5.232;2022-12-08T11:12:21;100726.0;;;3.65;100.0
63954;BME280;50128;52.094;5.232;2022-12-08T11:14:05;100724.0;;;3.63;100.0
63954;BME280;50128;52.094;5.232;2022-12-08T11:15:43;100730.0;;;3.63;100.0
63954;BME280;50128;52.094;5.232;2022-12-08T11:19:03;100727.0;;;3.59;100.0
63954;BME280;50128;52.094;5.232;2022-12-08T11:20:41;100723.0;;;3.72;100.0